Airfield :
LOGIN :

Register | Disclaimer

   EN    FR    IT 

 










Legend :    VFR   Marginal VFR   IFR   Intensive IFR   Very Intensive IFR
Visi :
Ceiling :
>= 8 km
>= 3000ft
5 to 8 km
1000 to 3000 ft
1500m to 5 km
500 to 1000 ft
800 to 1500m
200 to 500 ft
< 800m
< 200 ft
Symbols :   Thunderstorms  Fog  Heavy snow  Heavy precipitations  Wind > 20 kt
SIGMETs :     Misc.  Thunderstorms  Icing  Turbulence  Mountain Waves  Volcanic Ashes






- Airport Elevation : 276 ft


LYVR - Vršac International

CURRENT METAR :
  • 312000Z AUTO 00000KT 9999 BKN045/// 09/08 Q1015

EXPIRED METARs :
  • 311930Z AUTO 15001KT 9999 FEW046/// SCT100/// 10/08 Q1015
  • 311900Z AUTO 00000KT CAVOK 12/08 Q1014
  • 311830Z AUTO 32005KT CAVOK 13/08 Q1014
  • 311800Z AUTO 33008KT 9999 FEW040/// SCT055/// 14/07 Q1014
  • 311730Z AUTO 33010KT 9999 SCT041/// BKN047/// OVC054/// 15/08 Q1014

TAF TAF LYVR
Valid from the 31 at 18:00 until the 01 at 18:00 UTC


311700Z 3118/0118 30006KT 9999 BKN033 TX18/0113Z TN08/0103Z
BECMG 0100/0102 BKN006 BKN027
BECMG 0110/0112 SCT020 BKN030
TEMPO 0112/0118 33016KT 3000 TSRA SCT025CB BKN030



MET'MAP, your aeronautical weather chart ! - Copyright ORBIFLY December 2007 - Disclaimer

ORBIFLY MET'MAP TEAM :

Programming & Development : Alexandra Zaïnal
Concept & original design : Baudouin d'Aumeries
Assistance for programming : Marc-Olivier Méhu
Technical & hardware support : Manuel Goepfert

Contact : metmap@orbifly.com




SOURCES & CREDITS :

   NOAA